sensor_id;sensor_type;location;lat;lon;timestamp;pressure;altitude;pressure_sealevel;temperature;humidity
29903;BME280;30288;50.514;9.678;2023-05-10T00:01:21;97852.47;;;14.75;100.00
29903;BME280;30288;50.514;9.678;2023-05-10T00:03:26;97852.47;;;14.75;100.00
29903;BME280;30288;50.514;9.678;2023-05-10T00:05:32;97851.91;;;14.70;100.00
29903;BME280;30288;50.514;9.678;2023-05-10T00:07:37;97848.81;;;14.65;100.00
29903;BME280;30288;50.514;9.678;2023-05-10T00:09:42;97854.09;;;14.62;100.00
29903;BME280;30288;50.514;9.678;2023-05-10T00:11:48;97843.94;;;14.62;100.00
29903;BME280;30288;50.514;9.678;2023-05-10T00:13:54;97842.50;;;14.58;100.00
29903;BME280;30288;50.514;9.678;2023-05-10T00:16:03;97852.44;;;14.61;100.00
29903;BME280;30288;50.514;9.678;2023-05-10T00:18:08;97841.69;;;14.58;100.00
29903;BME280;30288;50.514;9.678;2023-05-10T00:20:13;97844.50;;;14.53;100.00
29903;BME280;30288;50.514;9.678;2023-05-10T00:22:20;97848.09;;;14.49;100.00
29903;BME280;30288;50.514;9.678;2023-05-10T00:24:25;97843.81;;;14.50;100.00
29903;BME280;30288;50.514;9.678;2023-05-10T00:26:30;97846.47;;;14.48;100.00
29903;BME280;30288;50.514;9.678;2023-05-10T00:28:36;97857.50;;;14.47;100.00
29903;BME280;30288;50.514;9.678;2023-05-10T00:30:41;97858.25;;;14.49;100.00
29903;BME280;30288;50.514;9.678;2023-05-10T00:32:49;97849.38;;;14.56;100.00
29903;BME280;30288;50.514;9.678;2023-05-10T00:34:54;97842.84;;;14.52;100.00
29903;BME280;30288;50.514;9.678;2023-05-10T00:37:01;97842.50;;;14.58;100.00
29903;BME280;30288;50.514;9.678;2023-05-10T00:39:07;97840.69;;;14.60;100.00
29903;BME280;30288;50.514;9.678;2023-05-10T00:41:13;97843.41;;;14.57;100.00
29903;BME280;30288;50.514;9.678;2023-05-10T00:43:20;97843.38;;;14.43;100.00
29903;BME280;30288;50.514;9.678;2023-05-10T00:45:25;97843.13;;;14.48;100.00
29903;BME280;30288;50.514;9.678;2023-05-10T00:47:31;97840.75;;;14.44;100.00
29903;BME280;30288;50.514;9.678;2023-05-10T00:49:37;97845.09;;;14.42;100.00
29903;BME280;30288;50.514;9.678;2023-05-10T00:51:42;97843.38;;;14.43;100.00
29903;BME280;30288;50.514;9.678;2023-05-10T00:53:48;97840.44;;;14.35;100.00
29903;BME280;30288;50.514;9.678;2023-05-10T00:55:54;97846.56;;;14.31;100.00
29903;BME280;30288;50.514;9.678;2023-05-10T00:57:59;97847.50;;;14.30;100.00
29903;BME280;30288;50.514;9.678;2023-05-10T01:00:07;97842.03;;;14.22;100.00
29903;BME280;30288;50.514;9.678;2023-05-10T01:02:13;97843.94;;;14.18;100.00
29903;BME280;30288;50.514;9.678;2023-05-10T01:04:19;97848.00;;;14.21;100.00
29903;BME280;30288;50.514;9.678;2023-05-10T01:06:30;97842.13;;;14.20;100.00
29903;BME280;30288;50.514;9.678;2023-05-10T01:08:36;97842.13;;;14.20;100.00
29903;BME280;30288;50.514;9.678;2023-05-10T01:10:42;97844.94;;;14.16;100.00
29903;BME280;30288;50.514;9.678;2023-05-10T01:12:47;97842.47;;;14.14;100.00
29903;BME280;30288;50.514;9.678;2023-05-10T01:14:53;97841.66;;;14.14;100.00
29903;BME280;30288;50.514;9.678;2023-05-10T01:17:00;97839.13;;;14.14;100.00
29903;BME280;30288;50.514;9.678;2023-05-10T01:19:10;97836.78;;;14.11;100.00
29903;BME280;30288;50.514;9.678;2023-05-10T01:21:23;97834.31;;;14.09;100.00
29903;BME280;30288;50.514;9.678;2023-05-10T01:24:08;97838.56;;;14.09;100.00
29903;BME280;30288;50.514;9.678;2023-05-10T01:26:36;97836.94;;;14.08;100.00
29903;BME280;30288;50.514;9.678;2023-05-10T01:29:04;97842.81;;;14.08;100.00
29903;BME280;30288;50.514;9.678;2023-05-10T01:31:27;97836.94;;;14.08;100.00
29903;BME280;30288;50.514;9.678;2023-05-10T01:33:41;97833.84;;;14.02;100.00
29903;BME280;30288;50.514;9.678;2023-05-10T01:35:58;97836.03;;;14.09;100.00
29903;BME280;30288;50.514;9.678;2023-05-10T01:38:18;97832.06;;;14.05;100.00
29903;BME280;30288;50.514;9.678;2023-05-10T01:40:30;97826.97;;;14.05;100.00
29903;BME280;30288;50.514;9.678;2023-05-10T01:42:40;97830.41;;;14.03;100.00
29903;BME280;30288;50.514;9.678;2023-05-10T01:44:56;97826.97;;;14.05;100.00
29903;BME280;30288;50.514;9.678;2023-05-10T01:47:09;97823.56;;;14.06;100.00
29903;BME280;30288;50.514;9.678;2023-05-10T01:49:24;97829.19;;;14.11;100.00
29903;BME280;30288;50.514;9.678;2023-05-10T01:51:38;97827.63;;;14.08;100.00
29903;BME280;30288;50.514;9.678;2023-05-10T01:53:45;97830.72;;;14.13;100.00
29903;BME280;30288;50.514;9.678;2023-05-10T01:55:53;97826.13;;;14.20;100.00
29903;BME280;30288;50.514;9.678;2023-05-10T01:58:03;97831.34;;;14.17;100.00
29903;BME280;30288;50.514;9.678;2023-05-10T02:00:12;97831.34;;;14.17;100.00
29903;BME280;30288;50.514;9.678;2023-05-10T02:02:21;97835.13;;;14.10;100.00
29903;BME280;30288;50.514;9.678;2023-05-10T02:04:32;97840.72;;;14.00;100.00
29903;BME280;30288;50.514;9.678;2023-05-10T02:06:41;97834.34;;;13.93;100.00
29903;BME280;30288;50.514;9.678;2023-05-10T02:08:49;97844.84;;;13.87;100.00
29903;BME280;30288;50.514;9.678;2023-05-10T02:10:56;97845.16;;;13.81;100.00
29903;BME280;30288;50.514;9.678;2023-05-10T02:13:03;97846.97;;;13.79;100.00
29903;BME280;30288;50.514;9.678;2023-05-10T02:15:12;97851.56;;;13.73;100.00
29903;BME280;30288;50.514;9.678;2023-05-10T02:17:20;97840.63;;;13.72;100.00
29903;BME280;30288;50.514;9.678;2023-05-10T02:19:30;97851.97;;;13.65;100.00
29903;BME280;30288;50.514;9.678;2023-05-10T02:21:38;97847.97;;;13.61;100.00
29903;BME280;30288;50.514;9.678;2023-05-10T02:23:45;97850.56;;;13.59;100.00
29903;BME280;30288;50.514;9.678;2023-05-10T02:25:52;97847.97;;;13.61;100.00
29903;BME280;30288;50.514;9.678;2023-05-10T02:28:03;97853.19;;;13.58;100.00
29903;BME280;30288;50.514;9.678;2023-05-10T02:30:11;97859.34;;;13.54;100.00
29903;BME280;30288;50.514;9.678;2023-05-10T02:32:17;97856.31;;;13.47;100.00
29903;BME280;30288;50.514;9.678;2023-05-10T02:34:26;97865.59;;;13.47;100.00
29903;BME280;30288;50.514;9.678;2023-05-10T02:36:36;97870.34;;;13.53;100.00
29903;BME280;30288;50.514;9.678;2023-05-10T02:38:44;97870.59;;;13.48;100.00
29903;BME280;30288;50.514;9.678;2023-05-10T02:40:49;97887.78;;;13.42;100.00
29903;BME280;30288;50.514;9.678;2023-05-10T02:42:57;97875.69;;;13.31;100.00
29903;BME280;30288;50.514;9.678;2023-05-10T02:45:11;97891.88;;;13.29;100.00
29903;BME280;30288;50.514;9.678;2023-05-10T02:47:18;97885.47;;;13.22;100.00
29903;BME280;30288;50.514;9.678;2023-05-10T02:49:24;97896.66;;;13.18;100.00
29903;BME280;30288;50.514;9.678;2023-05-10T02:51:35;97891.59;;;13.18;100.00
29903;BME280;30288;50.514;9.678;2023-05-10T02:53:44;97894.13;;;13.18;100.00
29903;BME280;30288;50.514;9.678;2023-05-10T02:55:52;97891.91;;;13.11;100.00
29903;BME280;30288;50.514;9.678;2023-05-10T02:58:02;97895.47;;;13.07;100.00
29903;BME280;30288;50.514;9.678;2023-05-10T03:00:09;97899.88;;;13.04;100.00
29903;BME280;30288;50.514;9.678;2023-05-10T03:02:15;97894.09;;;13.02;100.00
29903;BME280;30288;50.514;9.678;2023-05-10T03:04:20;97901.97;;;12.96;100.00
29903;BME280;30288;50.514;9.678;2023-05-10T03:06:28;97896.34;;;12.91;100.00
29903;BME280;30288;50.514;9.678;2023-05-10T03:08:36;97904.16;;;12.86;100.00
29903;BME280;30288;50.514;9.678;2023-05-10T03:10:59;97895.00;;;12.84;100.00
29903;BME280;30288;50.514;9.678;2023-05-10T03:13:19;97906.25;;;12.78;100.00
29903;BME280;30288;50.514;9.678;2023-05-10T03:15:37;97907.72;;;12.82;100.00
29903;BME280;30288;50.514;9.678;2023-05-10T03:17:54;97911.44;;;12.75;100.00
29903;BME280;30288;50.514;9.678;2023-05-10T03:20:03;97910.97;;;12.84;100.00
29903;BME280;30288;50.514;9.678;2023-05-10T03:22:21;97911.31;;;12.78;100.00
29903;BME280;30288;50.514;9.678;2023-05-10T03:24:32;97919.59;;;12.80;100.00
29903;BME280;30288;50.514;9.678;2023-05-10T03:26:39;97919.44;;;12.83;100.00
29903;BME280;30288;50.514;9.678;2023-05-10T03:28:50;97922.31;;;12.77;100.00
29903;BME280;30288;50.514;9.678;2023-05-10T03:30:56;97921.53;;;12.75;100.00
29903;BME280;30288;50.514;9.678;2023-05-10T03:33:05;97925.88;;;12.73;100.00
29903;BME280;30288;50.514;9.678;2023-05-10T03:35:14;97921.53;;;12.75;100.00
29903;BME280;30288;50.514;9.678;2023-05-10T03:37:20;97917.09;;;12.80;100.00
29903;BME280;30288;50.514;9.678;2023-05-10T03:39:25;97924.97;;;12.74;100.00
29903;BME280;30288;50.514;9.678;2023-05-10T03:41:36;97931.66;;;12.75;100.00
29903;BME280;30288;50.514;9.678;2023-05-10T03:43:41;97930.00;;;12.74;100.00
29903;BME280;30288;50.514;9.678;2023-05-10T03:45:46;97933.47;;;12.73;100.00
29903;BME280;30288;50.514;9.678;2023-05-10T03:47:52;97928.69;;;12.67;100.00
29903;BME280;30288;50.514;9.678;2023-05-10T03:49:57;97932.28;;;12.63;100.00
29903;BME280;30288;50.514;9.678;2023-05-10T03:52:03;97931.34;;;12.64;100.00
29903;BME280;30288;50.514;9.678;2023-05-10T03:54:09;97929.75;;;12.63;100.00
29903;BME280;30288;50.514;9.678;2023-05-10T03:56:15;97934.19;;;12.58;100.00
29903;BME280;30288;50.514;9.678;2023-05-10T03:58:23;97937.53;;;12.58;100.00
29903;BME280;30288;50.514;9.678;2023-05-10T04:00:28;97935.75;;;12.60;100.00
29903;BME280;30288;50.514;9.678;2023-05-10T04:02:35;97938.44;;;12.57;100.00
29903;BME280;30288;50.514;9.678;2023-05-10T04:04:40;97942.50;;;12.60;100.00
29903;BME280;30288;50.514;9.678;2023-05-10T04:06:46;97929.16;;;12.58;100.00
29903;BME280;30288;50.514;9.678;2023-05-10T04:08:51;97941.63;;;12.61;100.00
29903;BME280;30288;50.514;9.678;2023-05-10T04:11:05;97942.50;;;12.60;100.00
29903;BME280;30288;50.514;9.678;2023-05-10T04:13:11;97946.22;;;12.53;100.00
29903;BME280;30288;50.514;9.678;2023-05-10T04:15:19;97949.66;;;12.52;100.00
29903;BME280;30288;50.514;9.678;2023-05-10T04:17:25;97952.09;;;12.53;100.00
29903;BME280;30288;50.514;9.678;2023-05-10T04:19:30;97944.31;;;12.58;100.00
29903;BME280;30288;50.514;9.678;2023-05-10T04:21:36;97956.06;;;12.59;100.00
29903;BME280;30288;50.514;9.678;2023-05-10T04:23:41;97942.50;;;12.60;100.00
29903;BME280;30288;50.514;9.678;2023-05-10T04:25:47;97959.22;;;12.62;100.00
29903;BME280;30288;50.514;9.678;2023-05-10T04:27:52;97958.34;;;12.63;100.00
29903;BME280;30288;50.514;9.678;2023-05-10T04:29:57;97957.38;;;12.66;100.00
29903;BME280;30288;50.514;9.678;2023-05-10T04:32:05;97961.25;;;12.73;100.00
29903;BME280;30288;50.514;9.678;2023-05-10T04:34:12;97957.06;;;12.72;100.00
29903;BME280;30288;50.514;9.678;2023-05-10T04:36:18;97964.56;;;12.73;100.00
29903;BME280;30288;50.514;9.678;2023-05-10T04:38:23;97960.34;;;12.74;100.00
29903;BME280;30288;50.514;9.678;2023-05-10T04:40:28;97970.31;;;12.77;100.00
29903;BME280;30288;50.514;9.678;2023-05-10T04:42:33;97971.50;;;12.87;100.00
29903;BME280;30288;50.514;9.678;2023-05-10T04:44:38;97972.38;;;12.86;100.00
29903;BME280;30288;50.514;9.678;2023-05-10T04:46:44;97972.22;;;12.89;100.00
29903;BME280;30288;50.514;9.678;2023-05-10T04:48:51;97973.78;;;12.92;100.00
29903;BME280;30288;50.514;9.678;2023-05-10T04:50:57;97973.78;;;12.92;100.00
29903;BME280;30288;50.514;9.678;2023-05-10T04:53:02;97978.16;;;12.88;100.00
29903;BME280;30288;50.514;9.678;2023-05-10T04:55:08;97985.28;;;12.97;100.00
29903;BME280;30288;50.514;9.678;2023-05-10T04:57:14;97989.03;;;12.90;100.00
29903;BME280;30288;50.514;9.678;2023-05-10T04:59:19;97990.44;;;12.96;100.00
29903;BME280;30288;50.514;9.678;2023-05-10T05:01:24;97993.69;;;12.98;100.00
29903;BME280;30288;50.514;9.678;2023-05-10T05:03:29;97997.03;;;12.98;100.00
29903;BME280;30288;50.514;9.678;2023-05-10T05:05:37;98000.09;;;13.05;100.00
29903;BME280;30288;50.514;9.678;2023-05-10T05:07:43;98000.63;;;13.11;100.00
29903;BME280;30288;50.514;9.678;2023-05-10T05:09:48;98005.53;;;13.14;100.00
29903;BME280;30288;50.514;9.678;2023-05-10T05:11:53;98001.78;;;13.22;100.00
29903;BME280;30288;50.514;9.678;2023-05-10T05:13:58;98012.44;;;13.28;100.00
29903;BME280;30288;50.514;9.678;2023-05-10T05:16:05;98012.38;;;13.30;100.00
29903;BME280;30288;50.514;9.678;2023-05-10T05:18:10;98010.03;;;13.42;100.00
29903;BME280;30288;50.514;9.678;2023-05-10T05:20:15;98010.06;;;13.58;100.00
29903;BME280;30288;50.514;9.678;2023-05-10T05:22:23;98014.16;;;13.76;100.00
29903;BME280;30288;50.514;9.678;2023-05-10T05:24:35;98013.50;;;13.88;100.00
29903;BME280;30288;50.514;9.678;2023-05-10T05:26:41;98016.00;;;14.06;100.00
29903;BME280;30288;50.514;9.678;2023-05-10T05:28:46;98015.00;;;14.24;100.00
29903;BME280;30288;50.514;9.678;2023-05-10T05:30:54;98023.88;;;14.31;100.00
29903;BME280;30288;50.514;9.678;2023-05-10T05:32:59;98020.72;;;14.43;100.00
29903;BME280;30288;50.514;9.678;2023-05-10T05:35:06;98022.00;;;14.50;100.00
29903;BME280;30288;50.514;9.678;2023-05-10T05:37:13;98028.38;;;14.57;100.00
29903;BME280;30288;50.514;9.678;2023-05-10T05:39:21;98029.47;;;14.53;100.00
29903;BME280;30288;50.514;9.678;2023-05-10T05:41:27;98023.34;;;14.41;100.00
29903;BME280;30288;50.514;9.678;2023-05-10T05:43:32;98027.06;;;14.50;100.00
29903;BME280;30288;50.514;9.678;2023-05-10T05:45:40;98024.78;;;14.61;100.00
29903;BME280;30288;50.514;9.678;2023-05-10T05:47:45;98036.13;;;14.70;100.00
29903;BME280;30288;50.514;9.678;2023-05-10T05:49:50;98034.63;;;14.81;100.00
29903;BME280;30288;50.514;9.678;2023-05-10T05:51:59;98036.59;;;14.76;100.00
29903;BME280;30288;50.514;9.678;2023-05-10T05:54:04;98038.97;;;14.79;100.00
29903;BME280;30288;50.514;9.678;2023-05-10T05:56:12;98041.72;;;14.91;100.00
29903;BME280;30288;50.514;9.678;2023-05-10T05:58:17;98049.88;;;14.96;100.00
29903;BME280;30288;50.514;9.678;2023-05-10T06:00:22;98058.56;;;14.92;100.00
29903;BME280;30288;50.514;9.678;2023-05-10T06:02:28;98056.41;;;15.00;100.00
29903;BME280;30288;50.514;9.678;2023-05-10T06:04:33;98054.09;;;15.11;100.00
29903;BME280;30288;50.514;9.678;2023-05-10T06:06:38;98054.13;;;15.25;100.00
29903;BME280;30288;50.514;9.678;2023-05-10T06:08:44;98059.22;;;15.39;100.00
29903;BME280;30288;50.514;9.678;2023-05-10T06:10:49;98060.81;;;15.40;100.00
29903;BME280;30288;50.514;9.678;2023-05-10T06:12:57;98065.25;;;15.37;100.00
29903;BME280;30288;50.514;9.678;2023-05-10T06:15:02;98069.50;;;15.36;100.00
29903;BME280;30288;50.514;9.678;2023-05-10T06:17:08;98064.44;;;15.36;100.00
29903;BME280;30288;50.514;9.678;2023-05-10T06:19:13;98073.06;;;15.48;100.00
29903;BME280;30288;50.514;9.678;2023-05-10T06:21:18;98073.38;;;15.57;100.00
29903;BME280;30288;50.514;9.678;2023-05-10T06:23:24;98076.28;;;15.80;100.00
29903;BME280;30288;50.514;9.678;2023-05-10T06:25:30;98076.38;;;15.78;100.00
29903;BME280;30288;50.514;9.678;2023-05-10T06:27:35;98075.72;;;16.03;100.00
29903;BME280;30288;50.514;9.678;2023-05-10T06:29:43;98070.47;;;16.06;100.00
29903;BME280;30288;50.514;9.678;2023-05-10T06:31:51;98074.75;;;16.05;100.00
29903;BME280;30288;50.514;9.678;2023-05-10T06:33:57;98077.09;;;16.08;100.00
29903;BME280;30288;50.514;9.678;2023-05-10T06:36:03;98081.34;;;16.08;100.00
29903;BME280;30288;50.514;9.678;2023-05-10T06:38:08;98083.31;;;16.17;100.00
29903;BME280;30288;50.514;9.678;2023-05-10T06:40:14;98085.53;;;15.95;100.00
29903;BME280;30288;50.514;9.678;2023-05-10T06:42:19;98095.63;;;15.96;100.00
29903;BME280;30288;50.514;9.678;2023-05-10T06:44:24;98085.06;;;15.88;100.00
29903;BME280;30288;50.514;9.678;2023-05-10T06:46:32;98080.81;;;15.89;100.00
29903;BME280;30288;50.514;9.678;2023-05-10T06:48:37;98089.34;;;15.88;100.00
29903;BME280;30288;50.514;9.678;2023-05-10T06:50:43;98096.69;;;15.78;100.00
29903;BME280;30288;50.514;9.678;2023-05-10T06:52:48;98093.25;;;15.79;100.00
29903;BME280;30288;50.514;9.678;2023-05-10T06:54:54;98099.34;;;15.77;100.00
29903;BME280;30288;50.514;9.678;2023-05-10T06:56:59;98101.75;;;15.78;100.00
29903;BME280;30288;50.514;9.678;2023-05-10T06:59:09;98091.16;;;16.00;100.00
29903;BME280;30288;50.514;9.678;2023-05-10T07:01:15;98087.16;;;16.10;100.00
29903;BME280;30288;50.514;9.678;2023-05-10T07:03:23;98085.53;;;16.09;100.00
29903;BME280;30288;50.514;9.678;2023-05-10T07:05:29;98092.09;;;16.26;100.00
29903;BME280;30288;50.514;9.678;2023-05-10T07:07:34;98084.84;;;16.34;100.00
29903;BME280;30288;50.514;9.678;2023-05-10T07:09:40;98086.72;;;16.44;100.00
29903;BME280;30288;50.514;9.678;2023-05-10T07:11:45;98091.50;;;16.49;100.00
29903;BME280;30288;50.514;9.678;2023-05-10T07:13:50;98094.53;;;16.41;100.00
29903;BME280;30288;50.514;9.678;2023-05-10T07:15:55;98092.56;;;16.32;100.00
29903;BME280;30288;50.514;9.678;2023-05-10T07:18:01;98101.16;;;16.44;100.00
29903;BME280;30288;50.514;9.678;2023-05-10T07:20:12;98095.84;;;16.34;100.00
29903;BME280;30288;50.514;9.678;2023-05-10T07:22:17;98097.78;;;16.57;100.00
29903;BME280;30288;50.514;9.678;2023-05-10T07:24:22;98099.09;;;16.77;100.00
29903;BME280;30288;50.514;9.678;2023-05-10T07:26:27;98100.06;;;16.62;100.00
29903;BME280;30288;50.514;9.678;2023-05-10T07:28:32;98111.00;;;16.77;100.00
29903;BME280;30288;50.514;9.678;2023-05-10T07:30:39;98104.50;;;16.58;100.00
29903;BME280;30288;50.514;9.678;2023-05-10T07:32:44;98110.84;;;16.66;100.00
29903;BME280;30288;50.514;9.678;2023-05-10T07:34:50;98107.56;;;16.63;100.00
29903;BME280;30288;50.514;9.678;2023-05-10T07:36:58;98111.16;;;16.74;100.00
29903;BME280;30288;50.514;9.678;2023-05-10T07:39:04;98111.38;;;16.56;100.00
29903;BME280;30288;50.514;9.678;2023-05-10T07:41:11;98121.50;;;16.44;100.00
29903;BME280;30288;50.514;9.678;2023-05-10T07:43:16;98121.38;;;16.59;100.00
29903;BME280;30288;50.514;9.678;2023-05-10T07:45:21;98111.22;;;16.59;100.00
29903;BME280;30288;50.514;9.678;2023-05-10T07:47:27;98113.91;;;16.71;100.00
29903;BME280;30288;50.514;9.678;2023-05-10T07:49:32;98113.72;;;16.74;100.00
29903;BME280;30288;50.514;9.678;2023-05-10T07:51:38;98115.44;;;17.00;100.00
29903;BME280;30288;50.514;9.678;2023-05-10T07:53:45;98112.53;;;17.31;100.00
29903;BME280;30288;50.514;9.678;2023-05-10T07:55:51;98120.81;;;17.47;100.00
29903;BME280;30288;50.514;9.678;2023-05-10T07:58:00;98117.16;;;17.52;100.00
29903;BME280;30288;50.514;9.678;2023-05-10T08:00:07;98119.91;;;17.48;100.00
29903;BME280;30288;50.514;9.678;2023-05-10T08:02:15;98122.25;;;17.52;100.00
29903;BME280;30288;50.514;9.678;2023-05-10T08:04:21;98118.41;;;17.59;100.00
29903;BME280;30288;50.514;9.678;2023-05-10T08:06:26;98110.38;;;17.65;100.00
29903;BME280;30288;50.514;9.678;2023-05-10T08:08:32;98117.50;;;17.72;100.00
29903;BME280;30288;50.514;9.678;2023-05-10T08:10:40;98130.63;;;17.91;100.00
29903;BME280;30288;50.514;9.678;2023-05-10T08:12:45;98123.72;;;17.81;100.00
29903;BME280;30288;50.514;9.678;2023-05-10T08:14:50;98129.22;;;17.75;100.00
29903;BME280;30288;50.514;9.678;2023-05-10T08:16:55;98131.63;;;18.02;100.00
29903;BME280;30288;50.514;9.678;2023-05-10T08:19:01;98134.94;;;17.91;100.00
29903;BME280;30288;50.514;9.678;2023-05-10T08:21:07;98134.91;;;17.78;100.00
29903;BME280;30288;50.514;9.678;2023-05-10T08:23:13;98135.72;;;17.79;100.00
29903;BME280;30288;50.514;9.678;2023-05-10T08:25:18;98137.06;;;17.72;100.00
29903;BME280;30288;50.514;9.678;2023-05-10T08:27:26;98143.88;;;17.97;100.00
29903;BME280;30288;50.514;9.678;2023-05-10T08:29:31;98141.25;;;17.85;100.00
29903;BME280;30288;50.514;9.678;2023-05-10T08:31:51;98144.28;;;18.03;100.00
29903;BME280;30288;50.514;9.678;2023-05-10T08:33:56;98141.72;;;18.28;100.00
29903;BME280;30288;50.514;9.678;2023-05-10T08:36:02;98147.94;;;18.24;100.00
29903;BME280;30288;50.514;9.678;2023-05-10T08:38:07;98143.44;;;18.15;100.00
29903;BME280;30288;50.514;9.678;2023-05-10T08:40:13;98150.41;;;17.88;100.00
29903;BME280;30288;50.514;9.678;2023-05-10T08:42:19;98145.09;;;17.78;100.00
29903;BME280;30288;50.514;9.678;2023-05-10T08:44:31;98149.38;;;17.78;100.00
29903;BME280;30288;50.514;9.678;2023-05-10T08:46:38;98152.94;;;17.88;100.00
29903;BME280;30288;50.514;9.678;2023-05-10T08:48:48;98157.13;;;17.89;100.00
29903;BME280;30288;50.514;9.678;2023-05-10T08:50:54;98163.06;;;17.89;100.00
29903;BME280;30288;50.514;9.678;2023-05-10T08:53:06;98164.06;;;17.74;100.00
29903;BME280;30288;50.514;9.678;2023-05-10T08:55:11;98161.59;;;17.60;100.00
29903;BME280;30288;50.514;9.678;2023-05-10T08:57:18;98164.38;;;17.30;100.00
29903;BME280;30288;50.514;9.678;2023-05-10T08:59:24;98168.22;;;17.23;100.00
29903;BME280;30288;50.514;9.678;2023-05-10T09:01:32;98170.94;;;17.20;100.00
29903;BME280;30288;50.514;9.678;2023-05-10T09:03:38;98171.28;;;17.01;100.00
29903;BME280;30288;50.514;9.678;2023-05-10T09:05:44;98175.31;;;16.65;100.00
29903;BME280;30288;50.514;9.678;2023-05-10T09:07:49;98178.97;;;16.32;100.00
29903;BME280;30288;50.514;9.678;2023-05-10T09:09:55;98172.41;;;16.56;100.00
29903;BME280;30288;50.514;9.678;2023-05-10T09:12:01;98178.09;;;16.74;100.00
29903;BME280;30288;50.514;9.678;2023-05-10T09:14:06;98182.22;;;17.03;100.00
29903;BME280;30288;50.514;9.678;2023-05-10T09:16:12;98179.53;;;17.32;100.00
29903;BME280;30288;50.514;9.678;2023-05-10T09:18:26;98175.66;;;17.66;100.00
29903;BME280;30288;50.514;9.678;2023-05-10T09:20:31;98179.75;;;17.81;100.00
29903;BME280;30288;50.514;9.678;2023-05-10T09:22:36;98177.91;;;17.83;100.00
29903;BME280;30288;50.514;9.678;2023-05-10T09:24:43;98179.13;;;18.15;100.00
29903;BME280;30288;50.514;9.678;2023-05-10T09:26:49;98178.09;;;18.56;100.00
29903;BME280;30288;50.514;9.678;2023-05-10T09:28:56;98186.63;;;18.67;100.00
29903;BME280;30288;50.514;9.678;2023-05-10T09:31:01;98171.44;;;18.90;100.00
29903;BME280;30288;50.514;9.678;2023-05-10T09:33:07;98180.31;;;18.60;100.00
29903;BME280;30288;50.514;9.678;2023-05-10T09:35:16;98172.75;;;18.59;100.00
29903;BME280;30288;50.514;9.678;2023-05-10T09:37:29;98180.63;;;18.56;100.00
29903;BME280;30288;50.514;9.678;2023-05-10T09:39:36;98175.16;;;18.73;100.00
29903;BME280;30288;50.514;9.678;2023-05-10T09:41:43;98176.75;;;19.10;100.00
29903;BME280;30288;50.514;9.678;2023-05-10T09:43:50;98184.03;;;19.51;100.00
29903;BME280;30288;50.514;9.678;2023-05-10T09:46:08;98183.44;;;19.48;100.00
29903;BME280;30288;50.514;9.678;2023-05-10T09:48:14;98171.31;;;19.15;100.00
29903;BME280;30288;50.514;9.678;2023-05-10T09:50:23;98183.69;;;18.61;100.00
29903;BME280;30288;50.514;9.678;2023-05-10T09:52:29;98190.31;;;18.51;100.00
29903;BME280;30288;50.514;9.678;2023-05-10T09:54:34;98189.47;;;18.50;100.00
29903;BME280;30288;50.514;9.678;2023-05-10T09:56:40;98194.53;;;18.26;100.00
29903;BME280;30288;50.514;9.678;2023-05-10T09:58:46;98186.88;;;18.01;100.00
29903;BME280;30288;50.514;9.678;2023-05-10T10:01:11;98197.28;;;17.85;100.00
29903;BME280;30288;50.514;9.678;2023-05-10T10:03:19;98192.41;;;18.08;100.00
29903;BME280;30288;50.514;9.678;2023-05-10T10:05:32;98198.69;;;18.27;100.00
29903;BME280;30288;50.514;9.678;2023-05-10T10:07:38;98192.75;;;18.65;100.00
29903;BME280;30288;50.514;9.678;2023-05-10T10:09:44;98194.69;;;18.98;100.00
29903;BME280;30288;50.514;9.678;2023-05-10T10:11:50;98194.75;;;18.85;100.00
29903;BME280;30288;50.514;9.678;2023-05-10T10:13:55;98195.69;;;19.43;100.00
29903;BME280;30288;50.514;9.678;2023-05-10T10:16:00;98183.53;;;19.81;100.00
29903;BME280;30288;50.514;9.678;2023-05-10T10:18:06;98196.09;;;20.06;100.00
29903;BME280;30288;50.514;9.678;2023-05-10T10:20:11;98185.56;;;19.65;100.00
29903;BME280;30288;50.514;9.678;2023-05-10T10:22:20;98183.66;;;19.91;100.00
29903;BME280;30288;50.514;9.678;2023-05-10T10:24:25;98189.81;;;19.99;100.00
29903;BME280;30288;50.514;9.678;2023-05-10T10:26:30;98196.78;;;19.97;100.00
29903;BME280;30288;50.514;9.678;2023-05-10T10:28:47;98198.81;;;19.70;100.00
29903;BME280;30288;50.514;9.678;2023-05-10T10:30:55;98189.75;;;19.66;100.00
29903;BME280;30288;50.514;9.678;2023-05-10T10:33:25;98188.88;;;19.89;100.00
29903;BME280;30288;50.514;9.678;2023-05-10T10:35:34;98189.59;;;20.25;100.00
29903;BME280;30288;50.514;9.678;2023-05-10T10:37:50;98188.59;;;20.38;100.00
29903;BME280;30288;50.514;9.678;2023-05-10T10:39:55;98190.09;;;20.41;100.00
29903;BME280;30288;50.514;9.678;2023-05-10T10:42:01;98184.16;;;20.40;100.00
29903;BME280;30288;50.514;9.678;2023-05-10T10:44:24;98182.16;;;20.66;100.00
29903;BME280;30288;50.514;9.678;2023-05-10T10:46:30;98184.66;;;20.88;100.00
29903;BME280;30288;50.514;9.678;2023-05-10T10:48:35;98183.94;;;20.86;100.00
29903;BME280;30288;50.514;9.678;2023-05-10T10:50:44;98176.28;;;20.86;100.00
29903;BME280;30288;50.514;9.678;2023-05-10T10:52:53;98189.13;;;20.53;100.00
29903;BME280;30288;50.514;9.678;2023-05-10T10:55:01;98188.91;;;20.34;100.00
29903;BME280;30288;50.514;9.678;2023-05-10T10:57:11;98185.19;;;20.27;100.00
29903;BME280;30288;50.514;9.678;2023-05-10T10:59:27;98173.31;;;20.59;100.00
29903;BME280;30288;50.514;9.678;2023-05-10T11:01:33;98179.81;;;20.63;100.00
29903;BME280;30288;50.514;9.678;2023-05-10T11:03:39;98185.38;;;20.90;100.00
29903;BME280;30288;50.514;9.678;2023-05-10T11:05:45;98177.59;;;21.13;100.00
29903;BME280;30288;50.514;9.678;2023-05-10T11:07:57;98174.69;;;21.17;100.00